Time;durP1;ratioP1;P1;durP2;ratioP2;P2;SDS_P1;SDS_P2;PMS_P1;PMS_P2;Temp;Humidity;BMP_temperature;BMP_pressure;BME280_temperature;BME280_humidity;BME280_pressure;Samples;Min_cycle;Max_cycle;Signal;HPM_P1;HPM_P2
2021/06/02 00:01:09;;;;;;;1.20;1.00;;;19.10;64.70;;;;;;21097170;28;20516;-77
2021/06/02 00:11:11;;;;;;;1.10;0.70;;;19.10;64.70;;;;;;21129634;28;20342;-77
2021/06/02 00:21:13;;;;;;;0.70;0.50;;;19.10;64.80;;;;;;21112948;28;20043;-77
2021/06/02 00:31:14;;;;;;;1.52;1.00;;;19.00;64.80;;;;;;21095878;28;20447;-76
2021/06/02 00:41:14;;;;;;;1.60;0.90;;;19.00;64.80;;;;;;21110786;28;20177;-78
2021/06/02 00:51:18;;;;;;;1.25;0.90;;;19.00;64.80;;;;;;21110168;28;20023;-77
2021/06/02 01:01:21;;;;;;;0.85;0.52;;;19.00;64.90;;;;;;21109780;28;20432;-78
2021/06/02 01:11:23;;;;;;;0.98;0.68;;;19.00;64.90;;;;;;21109394;28;20123;-77
2021/06/02 01:21:24;;;;;;;1.23;0.80;;;19.00;64.90;;;;;;21107793;28;20126;-78
2021/06/02 01:31:58;;;;;;;1.35;0.90;;;19.00;64.90;;;;;;21090836;28;20485;-77
2021/06/02 01:42:17;;;;;;;1.00;0.70;;;19.00;64.90;;;;;;21123242;28;20431;-78
2021/06/02 01:52:55;;;;;;;1.52;0.80;;;19.00;64.90;;;;;;21138779;28;20403;-77
2021/06/02 02:03:22;;;;;;;1.70;0.57;;;19.00;65.00;;;;;;21122017;28;20039;-77
2021/06/02 02:14:01;;;;;;;0.65;0.50;;;19.00;65.70;;;;;;21110931;28;20032;-78
2021/06/02 02:24:08;;;;;;;0.63;0.40;;;19.00;65.00;;;;;;21154879;28;20036;-78
2021/06/02 02:34:43;;;;;;;1.30;0.88;;;19.00;64.90;;;;;;21138133;28;20404;-77
2021/06/02 02:45:16;;;;;;;1.27;0.80;;;19.00;65.00;;;;;;21149739;28;20748;-79
2021/06/02 02:55:19;;;;;;;0.90;0.60;;;18.90;64.90;;;;;;21156960;28;20160;-77
2021/06/02 03:05:28;;;;;;;0.55;0.52;;;18.90;64.90;;;;;;21152413;28;20423;-76
2021/06/02 03:15:39;;;;;;;0.57;0.40;;;18.90;64.90;;;;;;21118638;28;20040;-76
2021/06/02 03:25:51;;;;;;;0.82;0.52;;;18.90;64.90;;;;;;21150801;28;20245;-77
2021/06/02 03:36:07;;;;;;;0.90;0.60;;;18.90;64.90;;;;;;21132940;28;20036;-78
2021/06/02 03:46:49;;;;;;;0.50;0.50;;;18.90;64.90;;;;;;21113956;28;20520;-77
2021/06/02 03:56:59;;;;;;;0.60;0.40;;;18.90;64.80;;;;;;21164295;28;20409;-77
2021/06/02 04:07:08;;;;;;;0.77;0.70;;;18.90;64.80;;;;;;21130765;28;20032;-75
2021/06/02 04:17:09;;;;;;;1.13;0.52;;;18.80;64.70;;;;;;21126189;28;20466;-75
2021/06/02 04:27:13;;;;;;;0.90;0.55;;;18.90;64.70;;;;;;21124136;28;20188;-76
2021/06/02 04:37:14;;;;;;;1.83;0.60;;;18.80;64.60;;;;;;21133456;28;20493;-84
2021/06/02 04:47:16;;;;;;;0.80;0.55;;;18.80;64.60;;;;;;21148988;28;20084;-79
2021/06/02 04:57:42;;;;;;;1.77;0.40;;;18.80;64.50;;;;;;21131979;28;20066;-79
2021/06/02 05:08:11;;;;;;;0.70;0.32;;;18.80;64.50;;;;;;21149152;28;20530;-77
2021/06/02 05:18:43;;;;;;;0.57;0.40;;;18.80;64.30;;;;;;21134121;28;20389;-77
2021/06/02 05:29:24;;;;;;;0.80;0.40;;;18.80;64.20;;;;;;21133965;28;20032;-77
2021/06/02 05:40:10;;;;;;;1.08;0.70;;;18.80;64.20;;;;;;21098925;28;20100;-77
2021/06/02 05:50:51;;;;;;;0.30;0.30;;;18.80;64.10;;;;;;21124002;28;20038;-77
2021/06/02 06:01:06;;;;;;;0.67;0.57;;;18.80;64.10;;;;;;21129937;28;20035;-81
2021/06/02 06:11:42;;;;;;;0.60;0.50;;;18.80;64.10;;;;;;21053353;28;20394;-79
2021/06/02 06:22:04;;;;;;;0.52;0.50;;;18.80;63.90;;;;;;21094346;28;20505;-80
2021/06/02 06:32:05;;;;;;;0.68;0.40;;;18.80;63.90;;;;;;21040964;28;20522;-79
2021/06/02 06:42:06;;;;;;;0.50;0.50;;;18.80;64.00;;;;;;21102781;28;20071;-79
2021/06/02 06:52:10;;;;;;;0.77;0.43;;;18.80;64.00;;;;;;21090118;28;20028;-80
2021/06/02 07:02:10;;;;;;;0.90;0.57;;;18.70;64.00;;;;;;21070122;28;20035;-78
2021/06/02 07:12:14;;;;;;;0.75;0.50;;;18.70;64.00;;;;;;21059092;28;20039;-78
2021/06/02 07:22:19;;;;;;;0.40;0.40;;;18.70;64.00;;;;;;21110438;28;20440;-79
2021/06/02 07:32:21;;;;;;;0.50;0.50;;;18.70;64.00;;;;;;21031997;28;20080;-78
2021/06/02 07:42:28;;;;;;;1.15;0.52;;;18.70;64.00;;;;;;21036090;28;20044;-78
2021/06/02 07:52:28;;;;;;;2.42;0.80;;;18.70;63.90;;;;;;21078859;28;20057;-79
2021/06/02 08:02:30;;;;;;;1.97;0.70;;;18.70;63.90;;;;;;21115121;28;20104;-80
2021/06/02 08:12:31;;;;;;;0.68;0.47;;;18.70;63.80;;;;;;21068253;28;20316;-81
2021/06/02 08:22:32;;;;;;;1.47;0.50;;;18.70;63.80;;;;;;21087860;28;20045;-81
2021/06/02 08:32:34;;;;;;;1.13;0.80;;;18.80;63.80;;;;;;21087083;28;20289;-80
2021/06/02 08:42:39;;;;;;;0.82;0.60;;;18.70;63.80;;;;;;21098454;28;20036;-79
2021/06/02 08:52:41;;;;;;;2.10;0.70;;;18.70;63.70;;;;;;21116342;28;20027;-80
2021/06/02 09:02:46;;;;;;;1.20;0.70;;;18.70;63.70;;;;;;21074919;28;20028;-80
2021/06/02 09:12:56;;;;;;;0.87;0.57;;;18.80;63.70;;;;;;21487461;23;20115;-78
2021/06/02 09:22:59;;;;;;;1.00;0.68;;;18.70;63.60;;;;;;21103547;28;20032;-78
2021/06/02 09:33:00;;;;;;;1.08;0.82;;;18.80;63.70;;;;;;21122558;27;20084;-78
2021/06/02 09:43:01;;;;;;;0.93;0.68;;;18.80;63.80;;;;;;21051759;28;20036;-77
2021/06/02 09:53:02;;;;;;;2.83;0.75;;;18.80;63.80;;;;;;21074870;28;20070;-75
2021/06/02 10:03:13;;;;;;;1.25;0.80;;;18.80;63.80;;;;;;21095695;28;20035;-75
2021/06/02 10:13:14;;;;;;;1.65;0.88;;;18.80;63.90;;;;;;21111414;28;20043;-75
2021/06/02 10:23:15;;;;;;;1.77;1.13;;;18.80;63.90;;;;;;21116617;28;20052;-79
2021/06/02 10:33:15;;;;;;;1.45;0.90;;;18.80;64.00;;;;;;21132849;28;20042;-78
2021/06/02 10:43:18;;;;;;;1.42;1.00;;;18.80;64.00;;;;;;21118802;28;20122;-76
2021/06/02 10:53:20;;;;;;;1.45;1.17;;;18.80;64.10;;;;;;21130119;28;20053;-75
2021/06/02 11:03:27;;;;;;;1.52;1.05;;;18.80;64.10;;;;;;21115259;28;20122;-79
2021/06/02 11:13:29;;;;;;;2.28;1.25;;;18.90;64.30;;;;;;21132017;28;20070;-79
2021/06/02 11:23:34;;;;;;;4.93;1.40;;;18.90;64.30;;;;;;21148880;28;20036;-78
2021/06/02 11:33:35;;;;;;;2.03;1.00;;;18.90;64.30;;;;;;21128734;28;20099;-78
2021/06/02 11:43:36;;;;;;;7.00;1.48;;;18.90;64.50;;;;;;21144543;28;20030;-78
2021/06/02 11:53:39;;;;;;;4.22;1.20;;;19.00;64.60;;;;;;21127844;28;20028;-81
2021/06/02 12:03:41;;;;;;;3.05;1.40;;;19.00;64.80;;;;;;21141523;28;20111;-76
2021/06/02 12:13:45;;;;;;;4.20;1.55;;;19.00;64.80;;;;;;21142841;28;20556;-77
2021/06/02 12:23:58;;;;;;;2.72;1.70;;;19.00;64.90;;;;;;21125150;28;20035;-76
2021/06/02 12:34:00;;;;;;;1.73;1.45;;;19.10;65.00;;;;;;21143497;28;20052;-79
2021/06/02 12:44:03;;;;;;;3.55;1.77;;;19.10;65.00;;;;;;21108991;28;20043;-77
2021/06/02 12:54:03;;;;;;;3.17;1.45;;;19.10;65.10;;;;;;21141311;28;20039;-76
2021/06/02 13:04:05;;;;;;;3.63;1.58;;;19.20;65.10;;;;;;21140071;28;20024;-81
2021/06/02 13:14:06;;;;;;;2.13;1.65;;;19.20;65.10;;;;;;21107367;28;20043;-80
2021/06/02 13:24:18;;;;;;;2.50;1.63;;;19.20;65.10;;;;;;21104345;28;20035;-79
2021/06/02 13:34:34;;;;;;;3.58;1.80;;;19.30;65.20;;;;;;21104127;28;20044;-78
2021/06/02 13:44:35;;;;;;;2.50;1.50;;;19.40;65.20;;;;;;21119961;28;20378;-79
2021/06/02 13:54:36;;;;;;;2.13;1.63;;;19.50;65.10;;;;;;21120104;28;20047;-77
2021/06/02 14:04:37;;;;;;;2.75;1.55;;;19.60;65.00;;;;;;21103426;28;20039;-83
2021/06/02 14:14:38;;;;;;;4.53;1.80;;;19.70;64.90;;;;;;21105785;28;20028;-79
2021/06/02 14:24:39;;;;;;;4.53;1.90;;;19.80;64.90;;;;;;21127696;28;20062;-80
2021/06/02 14:34:40;;;;;;;5.10;1.58;;;19.80;64.80;;;;;;21141685;28;20035;-84
2021/06/02 14:44:42;;;;;;;8.02;1.60;;;19.90;64.70;;;;;;21141228;28;20047;-84
2021/06/02 14:54:43;;;;;;;4.38;2.05;;;20.00;64.60;;;;;;21179537;28;20027;-85
2021/06/02 15:04:44;;;;;;;3.88;2.10;;;20.20;64.30;;;;;;21179995;28;20039;-86
2021/06/02 15:14:46;;;;;;;3.35;1.80;;;20.20;64.00;;;;;;21213387;27;20358;-87
2021/06/02 15:24:48;;;;;;;3.20;1.88;;;20.30;63.80;;;;;;21131053;28;20061;-83
2021/06/02 15:34:49;;;;;;;3.83;1.90;;;20.40;63.70;;;;;;21136419;28;20119;-84
2021/06/02 15:44:50;;;;;;;3.05;1.55;;;20.40;63.60;;;;;;21136370;28;20092;-86
2021/06/02 15:54:52;;;;;;;3.00;1.60;;;20.60;63.60;;;;;;21122908;28;20028;-87
2021/06/02 16:04:53;;;;;;;4.00;1.67;;;20.60;63.50;;;;;;21134914;28;20092;-77
2021/06/02 16:14:53;;;;;;;2.65;1.95;;;20.70;63.40;;;;;;21115688;28;20043;-81
2021/06/02 16:24:56;;;;;;;2.47;1.63;;;20.80;62.90;;;;;;21135137;28;20059;-83
2021/06/02 16:34:56;;;;;;;5.03;1.52;;;20.90;62.60;;;;;;21129325;28;20043;-78
2021/06/02 16:44:57;;;;;;;9.57;1.88;;;20.90;62.40;;;;;;21130479;28;20035;-82
2021/06/02 16:55:08;;;;;;;4.15;2.03;;;21.00;61.50;;;;;;21132731;28;20459;-82
2021/06/02 17:05:09;;;;;;;3.13;1.88;;;21.00;61.00;;;;;;21129991;28;20138;-79
2021/06/02 17:15:10;;;;;;;6.90;1.63;;;21.00;61.10;;;;;;21109734;28;20156;-81
2021/06/02 17:25:11;;;;;;;2.88;2.13;;;21.00;61.50;;;;;;21108660;28;20165;-80
2021/06/02 17:35:13;;;;;;;5.57;1.88;;;20.90;61.90;;;;;;21117532;28;20027;-82
2021/06/02 17:45:18;;;;;;;3.42;1.60;;;20.80;62.40;;;;;;21109903;28;20127;-79
2021/06/02 17:55:20;;;;;;;6.03;1.75;;;20.80;62.50;;;;;;21107298;28;20082;-78
2021/06/02 18:05:21;;;;;;;3.33;2.20;;;20.80;62.50;;;;;;21090062;28;20104;-76
2021/06/02 18:15:21;;;;;;;2.63;1.33;;;20.70;62.60;;;;;;21037947;28;20028;-80
2021/06/02 18:25:23;;;;;;;2.10;1.38;;;20.70;62.80;;;;;;21020507;28;20029;-79
2021/06/02 18:35:23;;;;;;;2.38;1.33;;;20.60;62.90;;;;;;21020715;28;20630;-78
2021/06/02 18:45:24;;;;;;;2.65;1.67;;;20.50;63.20;;;;;;21020203;28;20040;-76
2021/06/02 18:55:28;;;;;;;1.75;1.17;;;20.50;63.40;;;;;;21036367;28;20032;-78
2021/06/02 19:05:29;;;;;;;4.03;1.10;;;20.40;63.60;;;;;;21019478;28;20520;-81
2021/06/02 19:15:30;;;;;;;2.38;1.40;;;20.40;63.80;;;;;;21083051;28;20035;-77
2021/06/02 19:25:32;;;;;;;2.15;1.58;;;20.30;63.90;;;;;;21049448;28;20047;-79
2021/06/02 19:35:38;;;;;;;2.00;1.23;;;20.30;64.10;;;;;;21131223;28;20035;-79
2021/06/02 19:45:39;;;;;;;3.00;1.17;;;20.20;64.10;;;;;;21118049;28;20131;-79
2021/06/02 19:55:40;;;;;;;2.35;0.98;;;20.20;64.20;;;;;;21130079;28;20079;-78
2021/06/02 20:05:40;;;;;;;1.77;1.17;;;20.10;64.30;;;;;;21148162;28;20148;-78
2021/06/02 20:15:41;;;;;;;1.90;1.07;;;20.10;64.40;;;;;;21130888;28;20480;-77
2021/06/02 20:25:42;;;;;;;1.05;0.88;;;20.10;64.50;;;;;;21122297;28;20289;-82
2021/06/02 20:35:46;;;;;;;1.75;1.25;;;20.00;64.50;;;;;;21139232;28;20118;-82
2021/06/02 20:45:55;;;;;;;1.97;1.10;;;20.00;64.60;;;;;;21139256;28;20031;-83
2021/06/02 20:55:55;;;;;;;1.65;1.10;;;20.00;64.60;;;;;;21123849;28;20130;-84
2021/06/02 21:05:56;;;;;;;1.15;0.90;;;20.00;64.60;;;;;;21115754;28;20067;-82
2021/06/02 21:15:57;;;;;;;1.37;1.00;;;20.00;64.70;;;;;;21115279;28;20485;-84
2021/06/02 21:25:58;;;;;;;2.03;1.10;;;19.90;64.70;;;;;;21151350;28;20289;-83
2021/06/02 21:35:58;;;;;;;1.42;0.90;;;20.00;64.80;;;;;;21121486;28;20093;-83
2021/06/02 21:45:59;;;;;;;1.23;1.02;;;19.90;64.90;;;;;;21134320;28;20131;-83
2021/06/02 21:56:00;;;;;;;1.10;0.68;;;19.90;64.90;;;;;;21100031;28;20130;-83
2021/06/02 22:06:01;;;;;;;1.23;1.00;;;19.90;65.00;;;;;;21116971;28;20397;-82
2021/06/02 22:16:04;;;;;;;2.22;1.23;;;19.90;65.00;;;;;;21101808;28;20035;-80
2021/06/02 22:26:05;;;;;;;1.40;1.23;;;20.00;65.10;;;;;;21121795;28;20031;-82
2021/06/02 22:36:18;;;;;;;1.58;0.90;;;19.90;65.20;;;;;;21111830;28;20036;-83
2021/06/02 22:46:19;;;;;;;1.85;1.20;;;19.90;65.30;;;;;;21158294;28;20085;-81
2021/06/02 22:56:21;;;;;;;1.02;0.80;;;19.90;65.30;;;;;;21152792;28;20085;-83
2021/06/02 23:06:22;;;;;;;1.42;1.00;;;19.80;65.20;;;;;;21155941;28;20035;-83
2021/06/02 23:16:23;;;;;;;1.80;1.00;;;20.00;65.30;;;;;;21163510;28;20023;-83
2021/06/02 23:26:25;;;;;;;1.33;0.88;;;19.90;65.30;;;;;;21129738;28;20134;-84
2021/06/02 23:36:30;;;;;;;1.30;0.88;;;19.90;65.40;;;;;;21143915;28;20417;-84
2021/06/02 23:46:30;;;;;;;1.67;1.15;;;19.80;65.30;;;;;;21135146;28;20378;-82
2021/06/02 23:56:31;;;;;;;1.42;1.10;;;19.90;65.30;;;;;;21147511;28;20047;-82
